Archival Weather

Fayette Rgnl Air Cntr Arp

Fayette Rgnl Air Cntr Arp, Texas (K3T5)

Report from: Thursday, September 22, 2022 7:55 AM CDT
Current time: Saturday, February 4, 2023 12:33 AM CST

Current weather
Weather history
Weather forecast

Temperature19.8°C (67.6°F)
Dew point19.8°C (67.6°F)
Winds Calm
Visibility10 mi. (16.1 km)
Clouds Sky clear
Altimeter30.00 in.Hg (1016 mB)
Relative humidity100 %
Density altitude785 ft. (239 m)
Remarks Fully automated report
Automated weather observing station with precipitation discriminator
Flight conditions Visual Meteorological Conditions
Raw dataK3T5 221255Z AUTO 00000KT 10SM CLR 20/20 A3000 RMK AO2 T01980198
An unhandled exception has occurred. See browser dev tools for details. Reload 🗙